sensor_id;sensor_type;location;lat;lon;timestamp;P1;durP1;ratioP1;P2;durP2;ratioP2
77535;SDS011;70085;44.530;0.094;2024-02-16T00:03:31;13.93;;;13.43;;
77535;SDS011;70085;44.530;0.094;2024-02-16T00:09:04;13.30;;;12.80;;
77535;SDS011;70085;44.530;0.094;2024-02-16T00:14:36;13.70;;;13.20;;
77535;SDS011;70085;44.530;0.094;2024-02-16T00:20:07;13.00;;;12.50;;
77535;SDS011;70085;44.530;0.094;2024-02-16T00:25:41;13.67;;;13.17;;
77535;SDS011;70085;44.530;0.094;2024-02-16T00:31:15;13.57;;;13.07;;
77535;SDS011;70085;44.530;0.094;2024-02-16T00:36:48;13.40;;;12.90;;
77535;SDS011;70085;44.530;0.094;2024-02-16T00:42:23;13.63;;;13.13;;
77535;SDS011;70085;44.530;0.094;2024-02-16T00:53:27;14.30;;;13.80;;
77535;SDS011;70085;44.530;0.094;2024-02-16T00:59:03;13.40;;;12.90;;
77535;SDS011;70085;44.530;0.094;2024-02-16T01:04:44;12.37;;;11.87;;
77535;SDS011;70085;44.530;0.094;2024-02-16T01:10:09;12.17;;;11.67;;
77535;SDS011;70085;44.530;0.094;2024-02-16T01:15:42;12.73;;;12.23;;
77535;SDS011;70085;44.530;0.094;2024-02-16T01:21:14;12.50;;;12.00;;
77535;SDS011;70085;44.530;0.094;2024-02-16T01:26:48;10.03;;;9.63;;
77535;SDS011;70085;44.530;0.094;2024-02-16T01:32:26;9.90;;;9.50;;
77535;SDS011;70085;44.530;0.094;2024-02-16T01:37:56;9.80;;;9.40;;
77535;SDS011;70085;44.530;0.094;2024-02-16T01:43:28;10.60;;;10.20;;
77535;SDS011;70085;44.530;0.094;2024-02-16T01:49:00;10.93;;;10.53;;
77535;SDS011;70085;44.530;0.094;2024-02-16T01:54:32;12.47;;;11.53;;
77535;SDS011;70085;44.530;0.094;2024-02-16T02:00:08;11.80;;;11.30;;
77535;SDS011;70085;44.530;0.094;2024-02-16T02:05:43;11.87;;;11.37;;
77535;SDS011;70085;44.530;0.094;2024-02-16T02:11:11;11.30;;;10.90;;
77535;SDS011;70085;44.530;0.094;2024-02-16T02:16:44;11.87;;;11.47;;
77535;SDS011;70085;44.530;0.094;2024-02-16T02:22:18;10.60;;;10.20;;
77535;SDS011;70085;44.530;0.094;2024-02-16T02:27:51;11.30;;;10.90;;
77535;SDS011;70085;44.530;0.094;2024-02-16T02:33:23;10.73;;;10.33;;
77535;SDS011;70085;44.530;0.094;2024-02-16T02:38:55;11.13;;;10.73;;
77535;SDS011;70085;44.530;0.094;2024-02-16T02:44:32;10.30;;;9.90;;
77535;SDS011;70085;44.530;0.094;2024-02-16T02:50:03;11.27;;;10.87;;
77535;SDS011;70085;44.530;0.094;2024-02-16T02:55:36;11.30;;;10.90;;
77535;SDS011;70085;44.530;0.094;2024-02-16T03:01:10;11.17;;;10.77;;
77535;SDS011;70085;44.530;0.094;2024-02-16T03:06:42;11.30;;;10.90;;
77535;SDS011;70085;44.530;0.094;2024-02-16T03:12:14;12.60;;;12.10;;
77535;SDS011;70085;44.530;0.094;2024-02-16T03:17:47;12.47;;;11.97;;
77535;SDS011;70085;44.530;0.094;2024-02-16T03:23:20;10.60;;;10.20;;
77535;SDS011;70085;44.530;0.094;2024-02-16T03:28:53;11.00;;;10.60;;
77535;SDS011;70085;44.530;0.094;2024-02-16T03:34:25;11.03;;;10.63;;
77535;SDS011;70085;44.530;0.094;2024-02-16T03:39:57;11.30;;;10.90;;
77535;SDS011;70085;44.530;0.094;2024-02-16T03:45:32;10.80;;;10.40;;
77535;SDS011;70085;44.530;0.094;2024-02-16T03:51:04;10.70;;;10.30;;
77535;SDS011;70085;44.530;0.094;2024-02-16T03:56:36;10.80;;;10.40;;
77535;SDS011;70085;44.530;0.094;2024-02-16T04:02:10;11.37;;;10.97;;
77535;SDS011;70085;44.530;0.094;2024-02-16T04:07:43;10.63;;;10.23;;
77535;SDS011;70085;44.530;0.094;2024-02-16T04:13:16;11.20;;;10.80;;
77535;SDS011;70085;44.530;0.094;2024-02-16T04:18:48;11.23;;;10.83;;
77535;SDS011;70085;44.530;0.094;2024-02-16T04:24:22;11.57;;;11.17;;
77535;SDS011;70085;44.530;0.094;2024-02-16T04:29:55;11.67;;;11.23;;
77535;SDS011;70085;44.530;0.094;2024-02-16T04:35:29;13.87;;;12.53;;
77535;SDS011;70085;44.530;0.094;2024-02-16T04:41:00;11.57;;;11.17;;
77535;SDS011;70085;44.530;0.094;2024-02-16T04:46:33;12.10;;;11.60;;
77535;SDS011;70085;44.530;0.094;2024-02-16T04:52:06;12.83;;;12.33;;
77535;SDS011;70085;44.530;0.094;2024-02-16T04:57:38;11.93;;;11.53;;
77535;SDS011;70085;44.530;0.094;2024-02-16T05:03:11;11.50;;;11.10;;
77535;SDS011;70085;44.530;0.094;2024-02-16T05:08:45;11.67;;;11.27;;
77535;SDS011;70085;44.530;0.094;2024-02-16T05:14:18;10.90;;;10.50;;
77535;SDS011;70085;44.530;0.094;2024-02-16T05:19:49;11.30;;;10.90;;
77535;SDS011;70085;44.530;0.094;2024-02-16T05:25:22;11.63;;;11.23;;
77535;SDS011;70085;44.530;0.094;2024-02-16T05:30:57;11.13;;;10.73;;
77535;SDS011;70085;44.530;0.094;2024-02-16T05:36:35;11.90;;;11.47;;
77535;SDS011;70085;44.530;0.094;2024-02-16T05:42:04;11.50;;;11.10;;
77535;SDS011;70085;44.530;0.094;2024-02-16T05:47:39;12.40;;;11.90;;
77535;SDS011;70085;44.530;0.094;2024-02-16T05:53:10;11.70;;;11.30;;
77535;SDS011;70085;44.530;0.094;2024-02-16T05:58:43;11.93;;;11.50;;
77535;SDS011;70085;44.530;0.094;2024-02-16T06:04:16;14.93;;;13.47;;
77535;SDS011;70085;44.530;0.094;2024-02-16T06:09:47;11.53;;;11.13;;
77535;SDS011;70085;44.530;0.094;2024-02-16T06:15:19;11.23;;;10.83;;
77535;SDS011;70085;44.530;0.094;2024-02-16T06:20:51;10.80;;;10.40;;
77535;SDS011;70085;44.530;0.094;2024-02-16T06:26:24;11.80;;;11.40;;
77535;SDS011;70085;44.530;0.094;2024-02-16T06:31:57;12.10;;;11.60;;
77535;SDS011;70085;44.530;0.094;2024-02-16T06:37:30;11.43;;;11.03;;
77535;SDS011;70085;44.530;0.094;2024-02-16T06:43:05;10.77;;;10.37;;
77535;SDS011;70085;44.530;0.094;2024-02-16T06:48:36;11.70;;;11.30;;
77535;SDS011;70085;44.530;0.094;2024-02-16T06:54:09;11.93;;;11.50;;
77535;SDS011;70085;44.530;0.094;2024-02-16T06:59:42;12.03;;;11.57;;
77535;SDS011;70085;44.530;0.094;2024-02-16T07:05:16;12.17;;;11.67;;
77535;SDS011;70085;44.530;0.094;2024-02-16T07:10:49;10.83;;;10.43;;
77535;SDS011;70085;44.530;0.094;2024-02-16T07:16:23;11.33;;;10.93;;
77535;SDS011;70085;44.530;0.094;2024-02-16T07:21:54;12.40;;;11.90;;
77535;SDS011;70085;44.530;0.094;2024-02-16T07:27:27;12.43;;;11.93;;
77535;SDS011;70085;44.530;0.094;2024-02-16T07:33:01;16.17;;;15.33;;
77535;SDS011;70085;44.530;0.094;2024-02-16T07:38:35;13.33;;;12.70;;
77535;SDS011;70085;44.530;0.094;2024-02-16T07:44:08;11.97;;;11.53;;
77535;SDS011;70085;44.530;0.094;2024-02-16T07:49:40;10.97;;;10.57;;
77535;SDS011;70085;44.530;0.094;2024-02-16T07:55:12;18.67;;;17.67;;
77535;SDS011;70085;44.530;0.094;2024-02-16T08:00:52;12.03;;;11.57;;
77535;SDS011;70085;44.530;0.094;2024-02-16T08:06:27;11.03;;;10.63;;
77535;SDS011;70085;44.530;0.094;2024-02-16T08:17:24;11.07;;;10.67;;
77535;SDS011;70085;44.530;0.094;2024-02-16T08:22:58;12.07;;;11.57;;
77535;SDS011;70085;44.530;0.094;2024-02-16T08:28:30;10.47;;;10.07;;
77535;SDS011;70085;44.530;0.094;2024-02-16T08:34:07;12.90;;;12.40;;
77535;SDS011;70085;44.530;0.094;2024-02-16T08:39:38;11.03;;;10.63;;
77535;SDS011;70085;44.530;0.094;2024-02-16T08:45:13;10.13;;;9.73;;
77535;SDS011;70085;44.530;0.094;2024-02-16T08:50:43;11.23;;;10.83;;
77535;SDS011;70085;44.530;0.094;2024-02-16T08:56:16;13.67;;;13.17;;
77535;SDS011;70085;44.530;0.094;2024-02-16T09:01:49;10.33;;;9.93;;
77535;SDS011;70085;44.530;0.094;2024-02-16T09:07:23;12.47;;;11.97;;
77535;SDS011;70085;44.530;0.094;2024-02-16T09:12:55;10.57;;;10.17;;
77535;SDS011;70085;44.530;0.094;2024-02-16T09:18:29;10.40;;;10.00;;
77535;SDS011;70085;44.530;0.094;2024-02-16T09:24:02;11.70;;;11.30;;
77535;SDS011;70085;44.530;0.094;2024-02-16T09:29:32;11.23;;;10.83;;
77535;SDS011;70085;44.530;0.094;2024-02-16T09:35:06;11.13;;;10.73;;
77535;SDS011;70085;44.530;0.094;2024-02-16T09:40:39;14.80;;;11.37;;
77535;SDS011;70085;44.530;0.094;2024-02-16T09:46:11;14.30;;;13.40;;
77535;SDS011;70085;44.530;0.094;2024-02-16T09:51:44;11.27;;;10.83;;
77535;SDS011;70085;44.530;0.094;2024-02-16T09:57:18;11.30;;;10.90;;
77535;SDS011;70085;44.530;0.094;2024-02-16T10:02:51;10.70;;;10.30;;
77535;SDS011;70085;44.530;0.094;2024-02-16T10:08:24;11.43;;;10.97;;
77535;SDS011;70085;44.530;0.094;2024-02-16T10:13:56;10.53;;;10.13;;
77535;SDS011;70085;44.530;0.094;2024-02-16T10:19:37;13.13;;;12.23;;
77535;SDS011;70085;44.530;0.094;2024-02-16T10:25:10;11.17;;;10.77;;
77535;SDS011;70085;44.530;0.094;2024-02-16T10:30:39;11.60;;;10.90;;
77535;SDS011;70085;44.530;0.094;2024-02-16T10:36:10;12.07;;;11.60;;
77535;SDS011;70085;44.530;0.094;2024-02-16T10:41:44;15.03;;;14.20;;
77535;SDS011;70085;44.530;0.094;2024-02-16T10:47:18;12.37;;;11.87;;
77535;SDS011;70085;44.530;0.094;2024-02-16T10:52:52;12.30;;;11.80;;
77535;SDS011;70085;44.530;0.094;2024-02-16T10:58:34;12.83;;;12.33;;
77535;SDS011;70085;44.530;0.094;2024-02-16T11:04:01;13.87;;;13.33;;
77535;SDS011;70085;44.530;0.094;2024-02-16T11:09:34;14.53;;;13.90;;
77535;SDS011;70085;44.530;0.094;2024-02-16T11:15:02;19.03;;;17.80;;
77535;SDS011;70085;44.530;0.094;2024-02-16T11:20:47;20.37;;;19.47;;
77535;SDS011;70085;44.530;0.094;2024-02-16T11:26:18;36.10;;;34.70;;
77535;SDS011;70085;44.530;0.094;2024-02-16T11:31:43;40.13;;;38.57;;
77535;SDS011;70085;44.530;0.094;2024-02-16T11:37:15;23.23;;;22.33;;
77535;SDS011;70085;44.530;0.094;2024-02-16T11:42:47;15.37;;;14.57;;
77535;SDS011;70085;44.530;0.094;2024-02-16T11:48:20;13.93;;;13.43;;
77535;SDS011;70085;44.530;0.094;2024-02-16T11:53:56;15.60;;;15.00;;
77535;SDS011;70085;44.530;0.094;2024-02-16T11:59:26;14.87;;;14.27;;
77535;SDS011;70085;44.530;0.094;2024-02-16T12:04:59;16.47;;;15.53;;
77535;SDS011;70085;44.530;0.094;2024-02-16T12:10:32;12.73;;;12.23;;
77535;SDS011;70085;44.530;0.094;2024-02-16T12:16:03;14.30;;;13.77;;
77535;SDS011;70085;44.530;0.094;2024-02-16T12:21:38;14.03;;;13.53;;
77535;SDS011;70085;44.530;0.094;2024-02-16T12:27:11;19.27;;;18.37;;
77535;SDS011;70085;44.530;0.094;2024-02-16T12:32:44;17.20;;;16.57;;
77535;SDS011;70085;44.530;0.094;2024-02-16T12:38:20;13.67;;;13.17;;
77535;SDS011;70085;44.530;0.094;2024-02-16T12:43:52;13.23;;;12.73;;
77535;SDS011;70085;44.530;0.094;2024-02-16T12:49:26;16.00;;;15.30;;
77535;SDS011;70085;44.530;0.094;2024-02-16T12:54:59;14.07;;;13.57;;
77535;SDS011;70085;44.530;0.094;2024-02-16T13:00:32;13.13;;;12.57;;
77535;SDS011;70085;44.530;0.094;2024-02-16T13:06:04;15.63;;;15.03;;
77535;SDS011;70085;44.530;0.094;2024-02-16T13:11:41;18.10;;;17.40;;
77535;SDS011;70085;44.530;0.094;2024-02-16T13:17:15;20.47;;;19.57;;
77535;SDS011;70085;44.530;0.094;2024-02-16T13:22:45;16.70;;;16.10;;
77535;SDS011;70085;44.530;0.094;2024-02-16T13:28:20;13.63;;;13.13;;
77535;SDS011;70085;44.530;0.094;2024-02-16T13:33:54;16.33;;;15.27;;
77535;SDS011;70085;44.530;0.094;2024-02-16T13:39:24;14.10;;;13.60;;
77535;SDS011;70085;44.530;0.094;2024-02-16T13:45:02;15.40;;;14.17;;
77535;SDS011;70085;44.530;0.094;2024-02-16T13:50:30;14.60;;;14.10;;
77535;SDS011;70085;44.530;0.094;2024-02-16T13:56:07;16.03;;;14.63;;
77535;SDS011;70085;44.530;0.094;2024-02-16T14:01:39;13.60;;;13.10;;
77535;SDS011;70085;44.530;0.094;2024-02-16T14:07:14;14.97;;;14.37;;
77535;SDS011;70085;44.530;0.094;2024-02-16T14:12:41;14.53;;;13.93;;
77535;SDS011;70085;44.530;0.094;2024-02-16T14:18:14;13.63;;;13.07;;
77535;SDS011;70085;44.530;0.094;2024-02-16T14:23:45;13.40;;;12.90;;
77535;SDS011;70085;44.530;0.094;2024-02-16T14:29:19;15.27;;;14.67;;
77535;SDS011;70085;44.530;0.094;2024-02-16T14:34:52;18.27;;;17.57;;
77535;SDS011;70085;44.530;0.094;2024-02-16T14:40:24;18.60;;;17.90;;
77535;SDS011;70085;44.530;0.094;2024-02-16T14:45:57;25.33;;;23.07;;
77535;SDS011;70085;44.530;0.094;2024-02-16T14:51:31;18.70;;;18.00;;
77535;SDS011;70085;44.530;0.094;2024-02-16T14:57:04;16.67;;;15.97;;
77535;SDS011;70085;44.530;0.094;2024-02-16T15:02:38;13.70;;;13.20;;
77535;SDS011;70085;44.530;0.094;2024-02-16T15:08:10;22.20;;;13.93;;
77535;SDS011;70085;44.530;0.094;2024-02-16T15:13:44;15.70;;;15.07;;
77535;SDS011;70085;44.530;0.094;2024-02-16T15:19:16;13.30;;;12.80;;
77535;SDS011;70085;44.530;0.094;2024-02-16T15:24:50;13.90;;;13.40;;
77535;SDS011;70085;44.530;0.094;2024-02-16T15:30:24;13.90;;;13.40;;
77535;SDS011;70085;44.530;0.094;2024-02-16T15:35:58;13.03;;;12.43;;
77535;SDS011;70085;44.530;0.094;2024-02-16T15:41:32;12.97;;;12.47;;
77535;SDS011;70085;44.530;0.094;2024-02-16T15:47:04;12.90;;;12.40;;
77535;SDS011;70085;44.530;0.094;2024-02-16T15:52:37;13.63;;;13.13;;
77535;SDS011;70085;44.530;0.094;2024-02-16T15:58:08;17.13;;;16.20;;
77535;SDS011;70085;44.530;0.094;2024-02-16T16:03:43;14.97;;;14.37;;
77535;SDS011;70085;44.530;0.094;2024-02-16T16:09:15;15.23;;;14.63;;
77535;SDS011;70085;44.530;0.094;2024-02-16T16:14:48;15.93;;;15.33;;
77535;SDS011;70085;44.530;0.094;2024-02-16T16:20:20;16.23;;;15.63;;
77535;SDS011;70085;44.530;0.094;2024-02-16T16:25:53;20.93;;;18.90;;
77535;SDS011;70085;44.530;0.094;2024-02-16T16:31:26;21.90;;;20.93;;
77535;SDS011;70085;44.530;0.094;2024-02-16T16:36:59;26.67;;;25.67;;
77535;SDS011;70085;44.530;0.094;2024-02-16T16:42:33;27.80;;;26.77;;
77535;SDS011;70085;44.530;0.094;2024-02-16T16:48:05;29.20;;;28.00;;
77535;SDS011;70085;44.530;0.094;2024-02-16T16:53:37;25.00;;;24.00;;
77535;SDS011;70085;44.530;0.094;2024-02-16T16:59:12;28.50;;;27.40;;
77535;SDS011;70085;44.530;0.094;2024-02-16T17:04:44;21.47;;;20.67;;
77535;SDS011;70085;44.530;0.094;2024-02-16T17:10:17;18.27;;;17.57;;
77535;SDS011;70085;44.530;0.094;2024-02-16T17:15:52;20.67;;;19.77;;
77535;SDS011;70085;44.530;0.094;2024-02-16T17:21:24;14.00;;;13.50;;
77535;SDS011;70085;44.530;0.094;2024-02-16T17:26:56;14.17;;;13.67;;
77535;SDS011;70085;44.530;0.094;2024-02-16T17:32:28;14.67;;;14.17;;
77535;SDS011;70085;44.530;0.094;2024-02-16T17:38:02;13.80;;;13.30;;
77535;SDS011;70085;44.530;0.094;2024-02-16T17:43:34;13.70;;;13.20;;
77535;SDS011;70085;44.530;0.094;2024-02-16T17:49:08;14.23;;;13.73;;
77535;SDS011;70085;44.530;0.094;2024-02-16T17:54:42;16.33;;;15.73;;
77535;SDS011;70085;44.530;0.094;2024-02-16T18:00:15;14.53;;;14.03;;
77535;SDS011;70085;44.530;0.094;2024-02-16T18:05:48;14.27;;;13.77;;
77535;SDS011;70085;44.530;0.094;2024-02-16T18:11:22;15.33;;;14.73;;
77535;SDS011;70085;44.530;0.094;2024-02-16T18:16:55;14.53;;;14.03;;
77535;SDS011;70085;44.530;0.094;2024-02-16T18:22:29;13.90;;;13.40;;
77535;SDS011;70085;44.530;0.094;2024-02-16T18:28:02;15.70;;;15.10;;
77535;SDS011;70085;44.530;0.094;2024-02-16T18:33:34;14.83;;;14.27;;
77535;SDS011;70085;44.530;0.094;2024-02-16T18:39:08;15.67;;;15.07;;
77535;SDS011;70085;44.530;0.094;2024-02-16T18:44:38;14.30;;;13.80;;
77535;SDS011;70085;44.530;0.094;2024-02-16T18:50:11;13.80;;;13.30;;
77535;SDS011;70085;44.530;0.094;2024-02-16T18:55:45;16.33;;;15.73;;
77535;SDS011;70085;44.530;0.094;2024-02-16T19:01:17;14.37;;;13.87;;
77535;SDS011;70085;44.530;0.094;2024-02-16T19:06:50;14.33;;;13.83;;
77535;SDS011;70085;44.530;0.094;2024-02-16T19:12:23;15.10;;;14.50;;
77535;SDS011;70085;44.530;0.094;2024-02-16T19:17:57;15.07;;;14.47;;
77535;SDS011;70085;44.530;0.094;2024-02-16T19:23:31;14.93;;;14.33;;
77535;SDS011;70085;44.530;0.094;2024-02-16T19:29:03;15.17;;;14.57;;
77535;SDS011;70085;44.530;0.094;2024-02-16T19:34:37;15.23;;;14.63;;
77535;SDS011;70085;44.530;0.094;2024-02-16T19:40:09;15.13;;;14.53;;
77535;SDS011;70085;44.530;0.094;2024-02-16T19:45:43;14.97;;;14.37;;
77535;SDS011;70085;44.530;0.094;2024-02-16T19:51:16;14.60;;;14.10;;
77535;SDS011;70085;44.530;0.094;2024-02-16T19:56:48;15.30;;;14.70;;
77535;SDS011;70085;44.530;0.094;2024-02-16T20:02:20;15.30;;;14.70;;
77535;SDS011;70085;44.530;0.094;2024-02-16T20:07:53;15.00;;;14.40;;
77535;SDS011;70085;44.530;0.094;2024-02-16T20:13:25;15.73;;;15.13;;
77535;SDS011;70085;44.530;0.094;2024-02-16T20:18:58;15.23;;;14.63;;
77535;SDS011;70085;44.530;0.094;2024-02-16T20:24:30;15.27;;;14.67;;
77535;SDS011;70085;44.530;0.094;2024-02-16T20:30:04;15.23;;;14.63;;
77535;SDS011;70085;44.530;0.094;2024-02-16T20:35:36;15.00;;;14.43;;
77535;SDS011;70085;44.530;0.094;2024-02-16T20:41:08;14.60;;;14.10;;
77535;SDS011;70085;44.530;0.094;2024-02-16T20:46:41;14.40;;;13.90;;
77535;SDS011;70085;44.530;0.094;2024-02-16T20:52:12;15.03;;;14.43;;
77535;SDS011;70085;44.530;0.094;2024-02-16T20:57:45;14.90;;;14.30;;
77535;SDS011;70085;44.530;0.094;2024-02-16T21:03:18;15.93;;;15.33;;
77535;SDS011;70085;44.530;0.094;2024-02-16T21:08:51;15.23;;;14.63;;
77535;SDS011;70085;44.530;0.094;2024-02-16T21:14:24;15.70;;;15.10;;
77535;SDS011;70085;44.530;0.094;2024-02-16T21:19:57;16.97;;;16.37;;
77535;SDS011;70085;44.530;0.094;2024-02-16T21:25:30;16.10;;;15.50;;
77535;SDS011;70085;44.530;0.094;2024-02-16T21:31:02;16.80;;;16.20;;
77535;SDS011;70085;44.530;0.094;2024-02-16T21:36:37;15.57;;;14.97;;
77535;SDS011;70085;44.530;0.094;2024-02-16T21:42:11;15.73;;;15.13;;
77535;SDS011;70085;44.530;0.094;2024-02-16T21:47:43;15.43;;;14.83;;
77535;SDS011;70085;44.530;0.094;2024-02-16T21:53:17;19.83;;;18.10;;
77535;SDS011;70085;44.530;0.094;2024-02-16T21:58:49;16.00;;;15.40;;
77535;SDS011;70085;44.530;0.094;2024-02-16T22:04:22;16.40;;;15.80;;
77535;SDS011;70085;44.530;0.094;2024-02-16T22:09:56;17.80;;;17.10;;
77535;SDS011;70085;44.530;0.094;2024-02-16T22:15:29;21.53;;;20.67;;
77535;SDS011;70085;44.530;0.094;2024-02-16T22:21:02;17.80;;;17.10;;
77535;SDS011;70085;44.530;0.094;2024-02-16T22:26:35;16.13;;;15.53;;
77535;SDS011;70085;44.530;0.094;2024-02-16T22:32:05;16.00;;;15.40;;
77535;SDS011;70085;44.530;0.094;2024-02-16T22:37:39;16.67;;;16.07;;
77535;SDS011;70085;44.530;0.094;2024-02-16T22:43:12;17.50;;;16.87;;
77535;SDS011;70085;44.530;0.094;2024-02-16T22:48:46;16.67;;;16.07;;
77535;SDS011;70085;44.530;0.094;2024-02-16T22:54:18;15.93;;;15.33;;
77535;SDS011;70085;44.530;0.094;2024-02-16T22:59:51;16.13;;;15.53;;
77535;SDS011;70085;44.530;0.094;2024-02-16T23:05:26;16.30;;;15.70;;
77535;SDS011;70085;44.530;0.094;2024-02-16T23:10:59;17.83;;;17.13;;
77535;SDS011;70085;44.530;0.094;2024-02-16T23:16:32;15.57;;;14.97;;
77535;SDS011;70085;44.530;0.094;2024-02-16T23:22:05;15.67;;;15.07;;
77535;SDS011;70085;44.530;0.094;2024-02-16T23:27:37;15.50;;;14.90;;
77535;SDS011;70085;44.530;0.094;2024-02-16T23:33:11;15.53;;;14.93;;
77535;SDS011;70085;44.530;0.094;2024-02-16T23:38:43;14.93;;;14.37;;
77535;SDS011;70085;44.530;0.094;2024-02-16T23:44:17;15.43;;;14.83;;
77535;SDS011;70085;44.530;0.094;2024-02-16T23:49:50;14.63;;;14.10;;
77535;SDS011;70085;44.530;0.094;2024-02-16T23:55:22;14.80;;;14.27;;
